createdAt,value
2022-11-20T00:01:47.005Z,3.90
2022-11-20T00:06:49.794Z,3.97
2022-11-20T00:11:53.864Z,3.92
2022-11-20T00:16:56.628Z,3.95
2022-11-20T00:21:59.396Z,4.23
2022-11-20T00:27:03.455Z,4.18
2022-11-20T00:32:06.484Z,3.97
2022-11-20T00:37:09.199Z,4.10
2022-11-20T00:42:13.264Z,4.07
2022-11-20T00:47:16.116Z,4.65
2022-11-20T00:52:18.888Z,4.25
2022-11-20T00:57:22.963Z,4.00
2022-11-20T01:02:25.692Z,4.05
2022-11-20T01:07:28.437Z,4.07
2022-11-20T01:12:32.529Z,4.60
2022-11-20T01:17:35.305Z,3.63
2022-11-20T01:22:38.038Z,4.22
2022-11-20T01:27:42.096Z,4.00
2022-11-20T01:32:45.058Z,4.90
2022-11-20T01:37:47.792Z,4.53
2022-11-20T01:43:20.370Z,5.22
2022-11-20T01:48:25.894Z,5.00
2022-11-20T01:53:34.179Z,5.50
2022-11-20T01:58:44.403Z,6.15
2022-11-20T02:03:49.541Z,6.60
2022-11-20T02:08:54.020Z,6.57
2022-11-20T02:13:58.094Z,7.10
2022-11-20T02:19:02.716Z,7.63
2022-11-20T02:24:10.206Z,7.90
2022-11-20T02:29:12.959Z,9.18
2022-11-20T02:34:15.688Z,9.80
2022-11-20T02:39:22.639Z,8.57
2022-11-20T02:44:25.659Z,8.50
2022-11-20T02:49:28.372Z,8.63
2022-11-20T02:54:32.461Z,8.80
2022-11-20T02:59:35.158Z,9.10
2022-11-20T03:04:37.887Z,9.63
2022-11-20T03:09:41.979Z,8.80
2022-11-20T03:14:47.763Z,8.70
2022-11-20T03:19:53.048Z,8.10
2022-11-20T03:24:57.099Z,7.47
2022-11-20T03:29:59.805Z,7.00
2022-11-20T03:35:02.879Z,6.70
2022-11-20T03:40:08.866Z,5.60
2022-11-20T03:45:11.848Z,5.00
2022-11-20T03:50:15.808Z,3.78
2022-11-20T03:55:19.932Z,3.17
2022-11-20T04:00:22.739Z,3.50
2022-11-20T04:05:25.503Z,2.87
2022-11-20T04:10:29.547Z,3.28
2022-11-20T04:15:38.136Z,3.13
2022-11-20T04:20:41.127Z,3.90
2022-11-20T04:25:45.284Z,4.15
2022-11-20T04:30:48.435Z,3.50
2022-11-20T04:35:51.152Z,3.23
2022-11-20T04:40:58.467Z,2.90
2022-11-20T04:46:02.280Z,3.25
2022-11-20T04:51:05.924Z,3.10
2022-11-20T04:56:11.956Z,2.70
2022-11-20T05:01:17.080Z,3.10
2022-11-20T05:06:22.920Z,2.67
2022-11-20T05:11:29.971Z,2.63
2022-11-20T05:16:32.859Z,2.50
2022-11-20T05:21:35.594Z,2.42
2022-11-20T05:26:39.944Z,2.60
2022-11-20T05:31:43.015Z,2.67
2022-11-20T05:36:45.765Z,2.53
2022-11-20T05:42:10.619Z,2.60
2022-11-20T05:47:13.339Z,2.83
2022-11-20T05:52:16.174Z,2.80
2022-11-20T05:57:20.223Z,2.60
2022-11-20T06:02:22.988Z,2.70
2022-11-20T06:07:26.227Z,2.78
2022-11-20T06:12:30.527Z,2.92
2022-11-20T06:17:33.291Z,2.90
2022-11-20T06:22:36.010Z,2.60
2022-11-20T06:27:40.103Z,2.92
2022-11-20T06:32:42.975Z,2.90
2022-11-20T06:37:45.701Z,3.37
2022-11-20T06:42:49.821Z,3.30
2022-11-20T06:47:52.770Z,3.08
2022-11-20T06:52:55.537Z,2.60
2022-11-20T06:57:59.846Z,3.00
2022-11-20T07:03:05.187Z,2.90
2022-11-20T07:08:08.383Z,3.20
2022-11-20T07:13:12.803Z,2.72
2022-11-20T07:18:15.523Z,3.05
2022-11-20T07:23:18.249Z,2.97
2022-11-20T07:28:22.434Z,3.10
2022-11-20T07:33:25.574Z,3.38
2022-11-20T07:38:28.324Z,3.30
2022-11-20T07:43:35.921Z,3.77
2022-11-20T07:48:42.816Z,3.70
2022-11-20T07:53:45.528Z,3.25
2022-11-20T07:58:49.609Z,3.10
2022-11-20T08:03:52.485Z,3.15
2022-11-20T08:08:55.229Z,3.17
2022-11-20T08:14:14.651Z,3.03
2022-11-20T08:19:20.153Z,2.93
2022-11-20T08:24:23.269Z,2.90
2022-11-20T08:29:28.114Z,2.97
2022-11-20T08:34:30.868Z,2.80
2022-11-20T08:39:33.596Z,7.30
2022-11-20T08:44:37.655Z,6.53
2022-11-20T08:49:40.382Z,3.40
2022-11-20T08:54:43.090Z,3.95
2022-11-20T09:05:10.106Z,2.93
2022-11-20T09:10:28.399Z,3.00
2022-11-20T09:15:32.556Z,2.95
2022-11-20T09:20:35.309Z,2.90
2022-11-20T09:25:38.100Z,2.33
2022-11-20T09:30:42.274Z,3.03
2022-11-20T09:35:45.610Z,3.08
2022-11-20T09:40:56.337Z,2.50
2022-11-20T09:46:10.641Z,3.58
2022-11-20T09:51:25.610Z,2.80
2022-11-20T09:56:30.239Z,3.43
2022-11-20T10:01:39.296Z,3.20
2022-11-20T10:06:59.506Z,2.90
2022-11-20T10:12:19.311Z,2.95
2022-11-20T10:17:36.042Z,2.97
2022-11-20T10:22:55.964Z,2.90
2022-11-20T10:28:17.869Z,2.72
2022-11-20T10:33:24.889Z,2.87
2022-11-20T10:38:35.977Z,2.38
2022-11-20T10:43:38.726Z,2.80
2022-11-20T10:48:46.105Z,3.07
2022-11-20T10:53:58.701Z,2.50
2022-11-20T10:59:44.137Z,2.70
2022-11-20T11:04:51.364Z,2.15
2022-11-20T11:09:55.870Z,2.30
2022-11-20T11:14:59.922Z,2.55
2022-11-20T11:20:07.723Z,2.45
2022-11-20T11:25:20.626Z,2.27
2022-11-20T11:30:25.241Z,2.70
2022-11-20T11:35:30.570Z,3.08
2022-11-20T11:40:34.713Z,2.60
2022-11-20T11:45:38.449Z,2.53
2022-11-20T11:50:50.997Z,3.00
2022-11-20T11:56:00.132Z,3.15
2022-11-20T12:01:09.934Z,2.97
2022-11-20T12:06:16.899Z,3.30
2022-11-20T12:11:26.240Z,3.00
2022-11-20T12:16:29.321Z,3.33
2022-11-20T12:21:46.253Z,3.25
2022-11-20T12:27:03.912Z,3.13
2022-11-20T12:32:33.553Z,3.73
2022-11-20T12:37:49.919Z,3.50
2022-11-20T12:43:21.111Z,3.90
2022-11-20T12:48:46.405Z,4.18
2022-11-20T12:54:08.326Z,3.83
2022-11-20T12:59:30.037Z,3.90
2022-11-20T13:04:46.771Z,4.30
2022-11-20T13:09:52.569Z,3.70
2022-11-20T13:15:04.832Z,3.55
2022-11-20T13:20:14.281Z,3.80
2022-11-20T13:25:29.538Z,3.80
2022-11-20T13:30:33.544Z,3.40
2022-11-20T13:35:38.340Z,3.35
2022-11-20T13:40:53.658Z,3.15
2022-11-20T13:45:58.633Z,3.20
2022-11-20T13:51:11.820Z,3.10
2022-11-20T13:56:26.095Z,3.25
2022-11-20T14:01:33.521Z,3.33
2022-11-20T14:06:42.656Z,2.85
2022-11-20T14:11:49.786Z,3.13
2022-11-20T14:16:53.302Z,2.90
2022-11-20T14:22:08.548Z,3.10
2022-11-20T14:27:18.477Z,2.80
2022-11-20T14:32:30.612Z,3.17
2022-11-20T14:37:38.325Z,3.20
2022-11-20T14:42:46.122Z,3.00
2022-11-20T14:47:50.119Z,3.03
2022-11-20T14:52:54.292Z,3.10
2022-11-20T14:58:00.157Z,3.10
2022-11-20T15:03:03.333Z,3.42
2022-11-20T15:08:08.824Z,3.37
2022-11-20T15:13:18.136Z,3.37
2022-11-20T15:18:23.425Z,3.60
2022-11-20T15:23:28.325Z,3.70
2022-11-20T15:28:35.400Z,4.03
2022-11-20T15:33:38.152Z,3.78
2022-11-20T15:38:40.944Z,3.75
2022-11-20T15:43:45.060Z,3.50
2022-11-20T15:48:52.819Z,3.70
2022-11-20T15:53:57.246Z,4.68
2022-11-20T16:04:14.027Z,6.13
2022-11-20T16:09:16.751Z,5.18
2022-11-20T16:14:36.943Z,4.43
2022-11-20T16:19:41.044Z,4.57
2022-11-20T16:24:43.800Z,4.70
2022-11-20T16:29:46.565Z,5.78
2022-11-20T16:34:51.862Z,6.87
2022-11-20T16:39:54.808Z,7.90
2022-11-20T16:44:57.612Z,5.88
2022-11-20T16:50:01.809Z,3.57
2022-11-20T16:55:05.250Z,3.63
2022-11-20T17:00:09.269Z,3.00
2022-11-20T17:05:13.343Z,3.20
2022-11-20T17:10:16.282Z,3.37
2022-11-20T17:15:19.281Z,3.42
2022-11-20T17:20:23.513Z,3.25
2022-11-20T17:25:26.248Z,3.80
2022-11-20T17:30:28.970Z,4.60
2022-11-20T17:35:33.162Z,4.15
2022-11-20T17:40:35.916Z,4.07
2022-11-20T17:45:38.854Z,4.00
2022-11-20T17:50:43.017Z,5.20
2022-11-20T17:56:03.283Z,4.50
2022-11-20T18:01:06.808Z,4.53
2022-11-20T18:06:12.599Z,4.88
2022-11-20T18:11:16.995Z,4.90
2022-11-20T18:16:19.743Z,5.47
2022-11-20T18:21:24.556Z,5.78
2022-11-20T18:26:27.659Z,5.70
2022-11-20T18:31:30.421Z,6.60
2022-11-20T18:36:34.631Z,7.00
2022-11-20T18:41:55.197Z,8.07
2022-11-20T18:46:58.066Z,6.90
2022-11-20T18:52:02.133Z,7.47
2022-11-20T18:57:05.269Z,7.05
2022-11-20T19:02:10.806Z,6.70
2022-11-20T19:07:15.829Z,7.10
2022-11-20T19:12:19.110Z,5.68
2022-11-20T19:17:21.861Z,5.70
2022-11-20T19:22:26.004Z,7.20
2022-11-20T19:27:28.961Z,6.17
2022-11-20T19:32:32.484Z,6.30
2022-11-20T19:37:37.058Z,5.57
2022-11-20T19:42:40.270Z,5.97
2022-11-20T19:48:06.638Z,6.40
2022-11-20T19:53:07.464Z,5.70
2022-11-20T19:58:10.297Z,6.00
2022-11-20T20:03:13.154Z,6.32
2022-11-20T20:08:17.309Z,6.30
2022-11-20T20:13:20.075Z,5.77
2022-11-20T20:18:22.796Z,6.53
2022-11-20T20:23:26.859Z,6.10
2022-11-20T20:28:30.027Z,6.25
2022-11-20T20:33:32.843Z,5.70
2022-11-20T20:38:37.498Z,6.10
2022-11-20T20:43:54.129Z,5.22
2022-11-20T20:48:56.898Z,5.93
2022-11-20T20:54:00.990Z,5.72
2022-11-20T20:59:04.371Z,5.78
2022-11-20T21:04:07.093Z,5.93
2022-11-20T21:09:11.376Z,5.53
2022-11-20T21:14:14.126Z,5.57
2022-11-20T21:19:16.913Z,5.22
2022-11-20T21:24:21.289Z,5.17
2022-11-20T21:29:25.520Z,5.57
2022-11-20T21:34:28.896Z,5.28
2022-11-20T21:39:32.965Z,5.70
2022-11-20T21:44:35.664Z,5.55
2022-11-20T21:49:39.834Z,5.50
2022-11-20T21:54:43.907Z,5.27
2022-11-20T21:59:46.642Z,5.47
2022-11-20T22:04:50.052Z,5.97
2022-11-20T22:09:54.103Z,5.82
2022-11-20T22:14:56.817Z,5.47
2022-11-20T22:19:59.548Z,6.50
2022-11-20T22:25:03.665Z,7.88
2022-11-20T22:30:07.468Z,7.07
2022-11-20T22:35:10.590Z,7.95
2022-11-20T22:40:15.004Z,7.28
2022-11-20T22:45:18.049Z,8.33
2022-11-20T22:50:20.787Z,7.93
2022-11-20T22:55:24.884Z,7.10
2022-11-20T23:00:27.580Z,6.47
2022-11-20T23:05:33.000Z,7.23
2022-11-20T23:10:37.063Z,7.55
2022-11-20T23:15:39.785Z,8.10
2022-11-20T23:20:42.508Z,8.63
2022-11-20T23:25:46.655Z,7.75
2022-11-20T23:30:49.387Z,9.60
2022-11-20T23:35:52.280Z,9.43
2022-11-20T23:40:56.364Z,9.43
2022-11-20T23:46:00.673Z,9.32
2022-11-20T23:51:04.133Z,8.65
2022-11-20T23:56:09.127Z,8.93
